createdAt,value
2022-09-07T00:01:07.524Z,6.75
2022-09-07T00:03:37.563Z,7.97
2022-09-07T00:06:09.549Z,5.45
2022-09-07T00:08:36.343Z,6.22
2022-09-07T00:11:06.189Z,5.10
2022-09-07T00:13:36.855Z,5.20
2022-09-07T00:16:13.110Z,6.57
2022-09-07T00:18:43.812Z,4.07
2022-09-07T00:21:17.458Z,5.63
2022-09-07T00:23:49.011Z,3.47
2022-09-07T00:26:22.001Z,4.82
2022-09-07T00:28:52.196Z,4.85
2022-09-07T00:31:21.970Z,4.47
2022-09-07T00:33:50.669Z,6.13
2022-09-07T00:36:18.939Z,5.85
2022-09-07T00:38:46.157Z,5.03
2022-09-07T00:41:13.758Z,5.25
2022-09-07T00:43:44.925Z,4.45
2022-09-07T00:46:20.467Z,5.30
2022-09-07T00:48:59.102Z,5.97
2022-09-07T00:51:38.805Z,4.32
2022-09-07T00:54:10.051Z,5.65
2022-09-07T00:56:41.371Z,7.90
2022-09-07T00:59:11.077Z,5.90
2022-09-07T01:01:39.314Z,4.45
2022-09-07T01:04:06.740Z,3.85
2022-09-07T01:06:36.109Z,3.22
2022-09-07T01:09:10.143Z,3.47
2022-09-07T01:11:38.048Z,4.65
2022-09-07T01:14:09.387Z,6.60
2022-09-07T01:17:14.820Z,5.25
2022-09-07T01:19:50.429Z,4.30
2022-09-07T01:22:23.217Z,5.13
2022-09-07T01:24:58.994Z,6.85
2022-09-07T01:27:41.644Z,4.13
2022-09-07T01:30:09.529Z,6.90
2022-09-07T01:32:39.191Z,6.40
2022-09-07T01:35:14.330Z,5.50
2022-09-07T01:38:03.250Z,6.47
2022-09-07T01:40:43.174Z,7.53
2022-09-07T01:43:17.150Z,4.78
2022-09-07T01:45:45.783Z,5.28
2022-09-07T01:48:17.601Z,5.53
2022-09-07T01:50:52.448Z,8.65
2022-09-07T01:53:30.809Z,5.10
2022-09-07T01:56:07.469Z,6.57
2022-09-07T01:58:56.537Z,5.97
2022-09-07T02:01:35.385Z,5.22
2022-09-07T02:04:11.086Z,5.88
2022-09-07T02:06:45.516Z,5.28
2022-09-07T02:09:26.617Z,6.47
2022-09-07T02:11:57.403Z,6.07
2022-09-07T02:14:51.934Z,5.40
2022-09-07T02:17:35.885Z,5.85
2022-09-07T02:20:16.737Z,5.20
2022-09-07T02:22:48.190Z,4.63
2022-09-07T02:27:54.367Z,4.85
2022-09-07T02:30:24.158Z,5.78
2022-09-07T02:32:51.120Z,6.35
2022-09-07T02:35:20.152Z,7.90
2022-09-07T02:37:48.549Z,6.65
2022-09-07T02:40:15.273Z,5.30
2022-09-07T02:42:43.301Z,5.85
2022-09-07T02:45:15.560Z,4.97
2022-09-07T02:47:45.049Z,4.43
2022-09-07T02:50:15.119Z,6.38
2022-09-07T02:53:26.489Z,7.07
2022-09-07T02:56:16.783Z,7.03
2022-09-07T02:58:50.480Z,5.13
2022-09-07T03:02:01.764Z,6.32
2022-09-07T03:04:43.272Z,6.00
2022-09-07T03:12:14.510Z,6.68
2022-09-07T03:14:43.051Z,5.57
2022-09-07T03:17:13.094Z,5.85
2022-09-07T03:19:42.330Z,8.05
2022-09-07T03:22:09.093Z,6.95
2022-09-07T03:24:36.764Z,8.32
2022-09-07T03:27:03.694Z,6.60
2022-09-07T03:29:30.933Z,8.75
2022-09-07T03:31:57.778Z,7.90
2022-09-07T03:34:26.771Z,7.15
2022-09-07T03:36:53.609Z,6.47
2022-09-07T03:39:23.751Z,7.63
2022-09-07T03:41:50.764Z,11.80
2022-09-07T03:44:17.858Z,5.90
2022-09-07T03:46:44.697Z,5.57
2022-09-07T03:49:11.591Z,9.13
2022-09-07T03:51:38.388Z,7.38
2022-09-07T03:54:08.261Z,8.02
2022-09-07T03:56:34.999Z,6.10
2022-09-07T03:59:02.221Z,6.68
2022-09-07T04:01:29.185Z,7.82
2022-09-07T04:04:05.155Z,6.65
2022-09-07T04:06:32.477Z,7.40
2022-09-07T04:09:05.613Z,5.90
2022-09-07T04:11:32.994Z,5.70
2022-09-07T04:14:02.461Z,8.13
2022-09-07T04:16:34.579Z,5.88
2022-09-07T04:19:01.734Z,8.75
2022-09-07T04:21:30.623Z,7.38
2022-09-07T04:23:57.892Z,7.18
2022-09-07T04:26:34.153Z,5.70
2022-09-07T04:29:04.104Z,6.38
2022-09-07T04:31:34.935Z,6.22
2022-09-07T04:34:04.804Z,5.45
2022-09-07T04:36:34.733Z,5.95
2022-09-07T04:39:04.890Z,6.47
2022-09-07T04:41:32.949Z,4.35
2022-09-07T04:44:01.693Z,6.15
2022-09-07T04:46:33.882Z,4.75
2022-09-07T04:49:04.324Z,4.30
2022-09-07T04:51:34.604Z,6.50
2022-09-07T04:54:02.510Z,6.03
2022-09-07T04:56:30.231Z,6.97
2022-09-07T04:58:57.295Z,5.95
2022-09-07T05:01:25.916Z,7.10
2022-09-07T05:03:53.043Z,8.40
2022-09-07T05:06:21.799Z,7.43
2022-09-07T05:08:53.462Z,9.77
2022-09-07T05:11:28.751Z,8.73
2022-09-07T05:14:01.192Z,12.48
2022-09-07T05:19:03.909Z,15.70
2022-09-07T05:21:34.976Z,17.33
2022-09-07T05:24:02.645Z,16.80
2022-09-07T05:26:32.769Z,17.25
2022-09-07T05:31:55.884Z,21.27
2022-09-07T05:34:31.440Z,18.40
2022-09-07T05:36:59.038Z,17.42
2022-09-07T05:39:26.712Z,18.23
2022-09-07T05:41:54.007Z,17.33
2022-09-07T05:47:10.106Z,15.57
2022-09-07T05:49:39.108Z,14.68
2022-09-07T05:52:06.013Z,16.17
2022-09-07T05:54:32.884Z,14.30
2022-09-07T05:56:59.651Z,13.45
2022-09-07T05:59:26.452Z,17.52
2022-09-07T06:01:53.337Z,14.80
2022-09-07T06:04:22.946Z,19.23
2022-09-07T06:07:20.174Z,17.80
2022-09-07T06:12:28.356Z,17.58
2022-09-07T06:14:55.226Z,17.80
2022-09-07T06:17:26.590Z,20.13
2022-09-07T06:19:53.654Z,21.60
2022-09-07T06:22:20.552Z,20.00
2022-09-07T06:24:49.523Z,19.23
2022-09-07T06:27:16.480Z,18.58
2022-09-07T06:29:43.472Z,21.80
2022-09-07T06:34:59.311Z,20.60
2022-09-07T06:37:26.139Z,23.38
2022-09-07T06:39:55.408Z,19.77
2022-09-07T06:42:25.227Z,20.55
2022-09-07T06:44:55.279Z,23.70
2022-09-07T06:47:24.793Z,21.33
2022-09-07T06:49:51.546Z,22.38
2022-09-07T06:52:18.326Z,20.23
2022-09-07T06:55:00.987Z,22.17
2022-09-07T06:57:30.405Z,19.20
2022-09-07T06:59:57.230Z,20.25
2022-09-07T07:02:24.093Z,19.80
2022-09-07T07:04:51.048Z,21.20
2022-09-07T07:07:23.911Z,19.50
2022-09-07T07:09:54.046Z,19.30
2022-09-07T07:14:54.736Z,20.83
2022-09-07T07:17:21.793Z,17.23
2022-09-07T07:19:48.558Z,18.50
2022-09-07T07:25:02.509Z,16.70
2022-09-07T07:27:31.479Z,18.10
2022-09-07T07:29:58.497Z,18.83
2022-09-07T07:32:25.262Z,19.60
2022-09-07T07:34:52.257Z,18.08
2022-09-07T07:37:18.998Z,15.30
2022-09-07T07:42:39.693Z,14.38
2022-09-07T07:47:54.840Z,13.98
2022-09-07T07:50:31.935Z,14.68
2022-09-07T07:55:46.837Z,14.77
2022-09-07T07:58:16.009Z,13.73
2022-09-07T08:00:58.557Z,14.82
2022-09-07T08:03:30.317Z,13.68
2022-09-07T08:06:04.383Z,16.10
2022-09-07T08:08:34.028Z,13.38
2022-09-07T08:11:17.006Z,14.20
2022-09-07T08:13:45.650Z,11.57
2022-09-07T08:16:13.578Z,14.40
2022-09-07T08:18:40.410Z,14.35
2022-09-07T08:21:12.520Z,14.70
2022-09-07T08:23:39.682Z,14.60
2022-09-07T08:26:06.692Z,16.08
2022-09-07T08:28:36.734Z,11.88
2022-09-07T08:31:12.939Z,11.82
2022-09-07T08:33:45.192Z,12.02
2022-09-07T08:36:15.266Z,10.45
2022-09-07T08:38:45.435Z,10.43
2022-09-07T08:41:40.727Z,12.45
2022-09-07T08:44:27.897Z,11.85
2022-09-07T08:47:16.845Z,9.52
2022-09-07T08:49:52.055Z,10.48
2022-09-07T08:52:29.135Z,12.25
2022-09-07T08:55:21.049Z,11.80
2022-09-07T08:57:55.400Z,9.00
2022-09-07T09:00:22.608Z,12.57
2022-09-07T09:06:08.871Z,9.57
2022-09-07T09:08:53.023Z,8.13
2022-09-07T09:11:44.386Z,9.23
2022-09-07T09:14:19.831Z,10.23
2022-09-07T09:16:53.136Z,9.00
2022-09-07T09:19:23.018Z,8.23
2022-09-07T09:22:00.606Z,9.70
2022-09-07T09:24:33.912Z,8.43
2022-09-07T09:27:01.193Z,8.45
2022-09-07T09:29:28.170Z,10.15
2022-09-07T09:31:57.414Z,8.50
2022-09-07T09:34:29.326Z,7.97
2022-09-07T09:36:58.118Z,10.35
2022-09-07T09:39:33.322Z,9.30
2022-09-07T09:42:05.285Z,10.48
2022-09-07T09:44:37.584Z,7.70
2022-09-07T09:47:33.318Z,10.35
2022-09-07T09:50:07.548Z,9.70
2022-09-07T09:52:47.604Z,10.15
2022-09-07T09:55:35.901Z,8.93
2022-09-07T10:03:55.399Z,9.30
2022-09-07T10:06:23.241Z,7.85
2022-09-07T10:08:57.826Z,9.30
2022-09-07T10:14:53.186Z,7.15
2022-09-07T10:17:33.280Z,7.25
2022-09-07T10:20:13.059Z,7.55
2022-09-07T10:23:00.446Z,6.63
2022-09-07T10:25:44.334Z,10.23
2022-09-07T10:28:14.056Z,13.35
2022-09-07T10:31:16.519Z,9.13
2022-09-07T10:34:25.740Z,6.35
2022-09-07T10:36:54.100Z,9.98
2022-09-07T10:39:27.806Z,12.05
2022-09-07T10:42:20.320Z,9.35
2022-09-07T10:44:56.356Z,7.07
2022-09-07T10:47:59.729Z,7.78
2022-09-07T10:50:47.822Z,9.60
2022-09-07T10:56:59.626Z,8.52
2022-09-07T11:05:50.561Z,10.68
2022-09-07T11:09:15.873Z,7.18
2022-09-07T11:14:22.001Z,12.63
2022-09-07T11:17:01.456Z,10.02
2022-09-07T11:19:43.943Z,10.50
2022-09-07T11:22:28.128Z,9.20
2022-09-07T11:28:21.005Z,9.35
2022-09-07T11:30:57.842Z,11.23
2022-09-07T11:33:32.418Z,10.85
2022-09-07T11:36:12.363Z,10.00
2022-09-07T11:38:49.135Z,9.70
2022-09-07T11:41:37.081Z,9.98
2022-09-07T11:44:28.669Z,11.27
2022-09-07T11:47:04.154Z,6.82
2022-09-07T11:49:30.936Z,8.70
2022-09-07T11:52:05.126Z,8.80
2022-09-07T11:54:35.205Z,9.27
2022-09-07T11:57:19.545Z,13.23
2022-09-07T12:00:01.684Z,9.80
2022-09-07T12:02:58.728Z,9.70
2022-09-07T12:05:41.464Z,10.00
2022-09-07T12:08:49.388Z,11.20
2022-09-07T12:11:37.610Z,9.95
2022-09-07T12:14:10.338Z,9.40
2022-09-07T12:16:59.820Z,10.98
2022-09-07T12:19:30.236Z,10.55
2022-09-07T12:22:00.694Z,13.00
2022-09-07T12:24:49.815Z,12.35
2022-09-07T12:27:28.061Z,11.07
2022-09-07T12:29:57.971Z,12.65
2022-09-07T12:32:58.220Z,10.10
2022-09-07T12:35:41.948Z,9.23
2022-09-07T12:38:16.938Z,11.38
2022-09-07T12:40:58.994Z,10.10
2022-09-07T12:43:43.850Z,9.10
2022-09-07T12:46:39.314Z,8.60
2022-09-07T12:49:20.368Z,6.45
2022-09-07T12:52:15.972Z,15.57
2022-09-07T12:55:23.646Z,8.63
2022-09-07T12:58:17.189Z,9.88
2022-09-07T13:01:08.458Z,9.73
2022-09-07T13:07:07.596Z,7.40
2022-09-07T13:09:39.306Z,10.93
2022-09-07T13:12:53.668Z,9.02
2022-09-07T13:15:41.038Z,9.10
2022-09-07T13:18:31.647Z,8.80
2022-09-07T13:21:07.409Z,12.82
2022-09-07T13:24:45.560Z,7.35
2022-09-07T13:27:22.626Z,9.63
2022-09-07T13:29:57.207Z,12.20
2022-09-07T13:35:29.403Z,9.80
2022-09-07T13:37:59.782Z,11.80
2022-09-07T13:40:30.322Z,7.47
2022-09-07T13:42:58.747Z,10.23
2022-09-07T13:45:36.887Z,9.65
2022-09-07T13:48:14.817Z,8.25
2022-09-07T13:50:47.326Z,10.98
2022-09-07T13:53:46.917Z,13.23
2022-09-07T13:56:42.883Z,8.45
2022-09-07T13:59:25.423Z,9.75
2022-09-07T14:01:56.101Z,11.45
2022-09-07T14:04:32.916Z,10.15
2022-09-07T14:07:26.738Z,7.65
2022-09-07T14:10:19.748Z,11.18
2022-09-07T14:12:53.971Z,6.53
2022-09-07T14:15:50.809Z,8.82
2022-09-07T14:18:30.409Z,8.35
2022-09-07T14:20:58.814Z,8.93
2022-09-07T14:23:31.401Z,7.85
2022-09-07T14:26:18.284Z,6.13
2022-09-07T14:28:54.040Z,10.77
2022-09-07T14:31:23.179Z,8.55
2022-09-07T14:33:58.485Z,8.35
2022-09-07T14:36:46.460Z,6.65
2022-09-07T14:39:17.063Z,10.52
2022-09-07T14:41:44.963Z,9.80
2022-09-07T14:44:32.805Z,10.73
2022-09-07T14:47:04.049Z,9.82
2022-09-07T14:49:31.422Z,9.25
2022-09-07T14:52:00.674Z,10.15
2022-09-07T14:54:34.860Z,6.78
2022-09-07T14:57:27.369Z,7.97
2022-09-07T14:59:57.230Z,11.30
2022-09-07T15:02:31.768Z,6.15
2022-09-07T15:05:25.480Z,7.50
2022-09-07T15:08:05.295Z,10.85
2022-09-07T15:10:41.270Z,9.40
2022-09-07T15:13:26.926Z,7.10
2022-09-07T15:15:59.419Z,8.60
2022-09-07T15:18:57.481Z,8.98
2022-09-07T15:21:36.550Z,7.85
2022-09-07T15:24:07.414Z,11.90
2022-09-07T15:29:30.522Z,8.27
2022-09-07T15:32:04.433Z,7.35
2022-09-07T15:34:32.670Z,8.45
2022-09-07T15:37:03.707Z,11.95
2022-09-07T15:39:31.324Z,7.50
2022-09-07T15:42:00.685Z,10.23
2022-09-07T15:44:47.758Z,10.98
2022-09-07T15:50:05.509Z,10.30
2022-09-07T15:54:59.776Z,9.40
2022-09-07T16:00:16.147Z,8.70
2022-09-07T16:05:34.478Z,11.00
2022-09-07T16:11:05.054Z,11.35
2022-09-07T16:13:35.761Z,10.48
2022-09-07T16:16:05.885Z,9.38
2022-09-07T16:18:34.161Z,11.48
2022-09-07T16:21:26.226Z,12.85
2022-09-07T16:23:56.360Z,12.40
2022-09-07T16:26:27.717Z,10.75
2022-09-07T16:28:56.947Z,9.00
2022-09-07T16:31:27.717Z,8.70
2022-09-07T16:33:58.118Z,9.93
2022-09-07T16:36:27.950Z,8.70
2022-09-07T16:38:56.312Z,9.25
2022-09-07T16:41:29.258Z,7.38
2022-09-07T16:43:56.519Z,11.82
2022-09-07T16:46:26.448Z,11.00
2022-09-07T16:48:55.705Z,10.80
2022-09-07T16:51:23.876Z,9.85
2022-09-07T16:53:54.245Z,10.15
2022-09-07T16:56:23.936Z,6.13
2022-09-07T16:59:01.878Z,9.73
2022-09-07T17:01:34.517Z,7.90
2022-09-07T17:04:04.355Z,14.40
2022-09-07T17:06:33.860Z,8.25
2022-09-07T17:09:00.686Z,7.82
2022-09-07T17:11:33.054Z,7.85
2022-09-07T17:14:00.342Z,7.07
2022-09-07T17:16:30.403Z,6.63
2022-09-07T17:21:50.115Z,8.80
2022-09-07T17:24:19.856Z,10.35
2022-09-07T17:26:49.008Z,8.50
2022-09-07T17:29:16.010Z,9.43
2022-09-07T17:34:31.909Z,5.53
2022-09-07T17:37:00.554Z,9.13
2022-09-07T17:39:28.002Z,6.53
2022-09-07T17:41:55.081Z,7.18
2022-09-07T17:44:23.291Z,11.32
2022-09-07T17:46:51.706Z,7.05
2022-09-07T17:49:18.547Z,10.90
2022-09-07T17:51:45.793Z,8.55
2022-09-07T17:54:15.762Z,9.13
2022-09-07T17:56:43.552Z,10.60
2022-09-07T18:02:00.937Z,9.35
2022-09-07T18:04:28.518Z,8.55
2022-09-07T18:06:55.461Z,10.25
2022-09-07T18:09:22.149Z,9.02
2022-09-07T18:11:51.654Z,9.85
2022-09-07T18:14:19.309Z,8.52
2022-09-07T18:16:48.973Z,8.93
2022-09-07T18:19:18.783Z,10.05
2022-09-07T18:21:48.245Z,6.80
2022-09-07T18:24:23.619Z,11.02
2022-09-07T18:26:52.657Z,10.20
2022-09-07T18:29:33.534Z,11.13
2022-09-07T18:34:34.622Z,9.88
2022-09-07T18:37:04.688Z,6.15
2022-09-07T18:39:32.387Z,10.55
2022-09-07T18:41:59.164Z,12.43
2022-09-07T18:47:21.690Z,9.88
2022-09-07T18:49:51.389Z,10.38
2022-09-07T18:55:07.312Z,10.85
2022-09-07T18:57:37.219Z,8.82
2022-09-07T19:00:07.993Z,8.52
2022-09-07T19:02:37.353Z,8.45
2022-09-07T19:07:53.840Z,10.80
2022-09-07T19:10:20.630Z,10.80
2022-09-07T19:12:47.473Z,9.07
2022-09-07T19:15:20.352Z,10.65
2022-09-07T19:17:47.032Z,9.27
2022-09-07T19:20:13.765Z,9.60
2022-09-07T19:22:50.871Z,10.27
2022-09-07T19:25:19.352Z,8.02
2022-09-07T19:27:46.068Z,9.77
2022-09-07T19:30:13.555Z,12.93
2022-09-07T19:32:42.588Z,10.40
2022-09-07T19:35:12.261Z,7.70
2022-09-07T19:37:41.791Z,10.43
2022-09-07T19:40:13.528Z,10.80
2022-09-07T19:42:42.571Z,7.63
2022-09-07T19:45:12.079Z,10.57
2022-09-07T19:47:38.790Z,11.90
2022-09-07T19:50:06.027Z,7.88
2022-09-07T19:52:32.915Z,10.43
2022-09-07T19:55:02.698Z,12.38
2022-09-07T19:57:29.874Z,12.00
2022-09-07T19:59:59.207Z,11.18
2022-09-07T20:02:28.387Z,12.45
2022-09-07T20:04:55.615Z,15.85
2022-09-07T20:07:22.441Z,16.02
2022-09-07T20:09:51.056Z,12.15
2022-09-07T20:12:19.101Z,12.52
2022-09-07T20:14:46.137Z,14.65
2022-09-07T20:17:15.098Z,18.60
2022-09-07T20:19:41.884Z,13.80
2022-09-07T20:22:13.781Z,13.20
2022-09-07T20:24:43.748Z,19.67
2022-09-07T20:27:12.691Z,16.77
2022-09-07T20:29:41.766Z,14.23
2022-09-07T20:32:10.750Z,13.02
2022-09-07T20:34:37.631Z,13.20
2022-09-07T20:37:06.566Z,12.68
2022-09-07T20:39:39.094Z,14.70
2022-09-07T20:42:08.621Z,15.05
2022-09-07T20:44:35.528Z,15.52
2022-09-07T20:47:02.924Z,18.48
2022-09-07T20:49:30.300Z,11.88
2022-09-07T20:51:57.054Z,18.25
2022-09-07T20:54:24.007Z,14.73
2022-09-07T20:56:50.675Z,18.25
2022-09-07T20:59:17.603Z,13.57
2022-09-07T21:01:44.460Z,14.43
2022-09-07T21:04:11.292Z,14.70
2022-09-07T21:06:40.478Z,18.50
2022-09-07T21:09:07.183Z,15.40
2022-09-07T21:11:35.561Z,12.27
2022-09-07T21:14:07.960Z,14.00
2022-09-07T21:16:37.663Z,13.10
2022-09-07T21:19:07.285Z,10.45
2022-09-07T21:21:38.719Z,9.95
2022-09-07T21:24:06.634Z,6.38
2022-09-07T21:26:35.482Z,11.90
2022-09-07T21:29:05.121Z,13.05
2022-09-07T21:31:33.654Z,8.15
2022-09-07T21:34:02.231Z,11.60
2022-09-07T21:36:31.816Z,10.68
2022-09-07T21:38:58.577Z,10.35
2022-09-07T21:41:25.726Z,11.82
2022-09-07T21:43:56.669Z,10.93
2022-09-07T21:46:24.474Z,12.05
2022-09-07T21:48:51.359Z,9.85
2022-09-07T21:51:18.439Z,10.65
2022-09-07T21:53:45.189Z,8.60
2022-09-07T21:56:14.249Z,8.32
2022-09-07T21:58:41.609Z,14.43
2022-09-07T22:01:14.324Z,10.73
2022-09-07T22:03:41.281Z,8.98
2022-09-07T22:06:08.780Z,7.25
2022-09-07T22:08:39.106Z,6.03
2022-09-07T22:11:07.996Z,10.52
2022-09-07T22:13:35.225Z,6.72
2022-09-07T22:16:03.525Z,6.95
2022-09-07T22:18:32.959Z,5.63
2022-09-07T22:21:12.029Z,5.68
2022-09-07T22:23:43.779Z,5.93
2022-09-07T22:26:11.681Z,8.23
2022-09-07T22:28:41.752Z,5.95
2022-09-07T22:31:15.067Z,8.15
2022-09-07T22:33:42.280Z,8.07
2022-09-07T22:36:23.527Z,7.28
2022-09-07T22:38:53.259Z,10.88
2022-09-07T22:41:22.083Z,8.00
2022-09-07T22:43:50.916Z,10.10
2022-09-07T22:46:20.370Z,9.40
2022-09-07T22:48:49.886Z,7.60
2022-09-07T22:51:17.517Z,6.65
2022-09-07T22:53:45.025Z,6.95
2022-09-07T22:56:18.588Z,8.43
2022-09-07T22:58:47.068Z,7.32
2022-09-07T23:01:14.119Z,9.00
2022-09-07T23:03:43.650Z,8.43
2022-09-07T23:06:34.784Z,8.00
2022-09-07T23:09:05.213Z,8.63
2022-09-07T23:11:34.146Z,10.82
2022-09-07T23:14:03.132Z,5.95
2022-09-07T23:16:33.036Z,8.85
2022-09-07T23:19:00.812Z,8.00
2022-09-07T23:21:27.948Z,7.05
2022-09-07T23:23:59.713Z,8.07
2022-09-07T23:26:30.043Z,7.85
2022-09-07T23:29:01.699Z,6.78
2022-09-07T23:31:29.867Z,7.85
2022-09-07T23:33:59.958Z,8.25
2022-09-07T23:36:29.572Z,5.70
2022-09-07T23:38:58.449Z,8.02
2022-09-07T23:41:25.782Z,9.45
2022-09-07T23:43:55.866Z,8.25
2022-09-07T23:46:25.622Z,10.30
2022-09-07T23:48:52.462Z,7.60
2022-09-07T23:51:23.829Z,8.52
2022-09-07T23:53:50.925Z,5.90
2022-09-07T23:56:19.999Z,7.28
2022-09-07T23:58:48.906Z,8.55
